首页
METAR-TAF:

METAR-TAF

机场 :

米登霍爾皇家空軍基地

Mildenhall, 英格兰

纬度: 52-22N, 经度: 000-29E, 海拔: 10米

当前天气观测

该预报发布于34分钟前的14:59 UTC
风速3节,风向东南
温度 19°C
湿度 73%
气压 1013 hPa
能见度10公里或以上
多云层高于9000英尺
小雨

METAR: EGUN 181459Z AUTO 14003KT 9999 -RA BKN090 19/14 A2991 RMK AO2 RAB59 SLP132 $

时间: 16:33 (15:33 UTC)

预报

该预报发布于3小时和33分钟前的12:00 UTC
预报有效从18日的 12点(UTC)到 19日的 18点(UTC)
风速9节,风向南转西南
能见度10公里或以上
多云层高于2000英尺
成为
从 18日的 15点(UTC)到 18日的 16点(UTC)
风速6节,风向多变
能見度: 8000
多云层高于1000英尺
小雨
成为
从 18日的 23点(UTC)到 18日的 24点(UTC)
风速6节,风向多变
能見度: 8000
多云层高于5000英尺
轻雾
成为
从 19日的 04点(UTC)到 19日的 05点(UTC)
风速6节,风向多变
能見度: 8000
多云层高于1000英尺
小阵雨

TAF: EGUN 181200Z 1812/1918 20009KT 9999 BKN020 QNH2990INS BECMG 1815/1816 VRB06KT 8000 -RA BKN010 QNH2987INS BECMG 1823/1824 VRB06KT 8000 BR BKN050 QNH2975INS BECMG 1904/1905 VRB06KT 8000 -SHRA BKN010 QNH2970INS TX20/1814Z TN12/1904Z

超过4000个机场的气象观测和天气预报(METAR&TAF报告)。

可查询的气象台以黄色和红色小点在地图上表示。

将鼠标移到小点上方,可查看气象台名称。

然后点击查看天气观测和预报。

如需切换地图:点击带黑十字的绿色按钮放大地图;点击带横线的绿色按钮缩小地图;或者点击绿色箭头查看邻近地区的地图。


METAR-TAF: